Missouri River (Missouri), Jefferson City (06910450)

StateMissouriLatestUnknown (40100 cfs)
RiverMissouri RiverRatingObservedEstimated
Updated2022-09-25 21:45 (1 hour ago)Flood - The river is flooding. Obstacles can be treacherous or deadly. The river should be avoided at this stage for casual trips and definitely for the inexperienced. Trips should be attempted only with protective gear and equipment.Flood(none)(none)
Discharge40100 cfs (median: 58400 cfs)High - The river is high and potentially dangerous, especially for the young and / or inexperienced. Normal stream obstacles are sometimes difficult to navigate. Extended distances can be attempted, but canoe travel may not be advisable.High(none)(none)
Height4.85 feetGood - Conditions are ideal for a canoe or kayak. Boats typically will drag on fewer than one-quarter of riffles, if at all, and portages are unnecessary or rare. Normal float lengths can be attempted without a problem.Good(none)(none)
TrendRising (rising over 24 hours)Low - River is low but can still be floated. Some riffles are okay but most come with significant dragging and might need a portage. Float lengths should be reduced to accommodate low flow, dragging, and portages.Low(none)(none)
USGSExternal icon USGS Site (External icon Duck Duck Go Maps)Poor - River is too low to float comfortably. Most or all riffles will drag or must be portaged and some obstacles (such as slick shelf rock) cause undue problems. Avoid the river at this stage for casual paddling trips.Poor(none)(none)

Trending Data

Plot Image

Trips for Missouri River (Missouri), Jefferson City (06910450)

DateStartEndDistanceConditionDischargeHeightFishingDetails

A total of 0 rows are displayed.

Condition Descriptions

Fishing Conditions

Fish Species

Notes

Classic Trip List

The classic River Trips application is still available for use. It is updated with the new system using a data retrofit. It is no longer maintained. The original River Trips application is no longer updated (as of 1 Dec 2016) but can be checked for errors or for the condition of the data before it was converted to the new system.

Gauge Data Table

ObservationHeightDischargeMaximum
Discharge
Minimum
Discharge
Mean
Discharge
P05P10P20P25P50
(Median)
P75P80P90P95
2022-09-25 21:45 4.85 40100 194000 (2019) 44000 (2021) 82000 46000 47300 58400 99600 137000
2022-09-25 20:45 4.84 40000 194000 (2019) 44000 (2021) 82000 46000 47300 58400 99600 137000
2022-09-25 19:45 4.83 40000 194000 (2019) 44000 (2021) 82000 46000 47300 58400 99600 137000
2022-09-25 18:45 4.82 39900 194000 (2019) 44000 (2021) 82000 46000 47300 58400 99600 137000
2022-09-25 17:45 4.78 39800 194000 (2019) 44000 (2021) 82000 46000 47300 58400 99600 137000
2022-09-25 16:45 4.83 40000 194000 (2019) 44000 (2021) 82000 46000 47300 58400 99600 137000
2022-09-25 15:45 4.71 39500 194000 (2019) 44000 (2021) 82000 46000 47300 58400 99600 137000
2022-09-25 14:45 4.81 39900 194000 (2019) 44000 (2021) 82000 46000 47300 58400 99600 137000
2022-09-25 13:45 4.77 39700 194000 (2019) 44000 (2021) 82000 46000 47300 58400 99600 137000
2022-09-25 12:45 4.77 39700 194000 (2019) 44000 (2021) 82000 46000 47300 58400 99600 137000
2022-09-25 11:45 4.81 39900 194000 (2019) 44000 (2021) 82000 46000 47300 58400 99600 137000
2022-09-25 10:45 4.80 39800 194000 (2019) 44000 (2021) 82000 46000 47300 58400 99600 137000
2022-09-25 09:45 4.81 39900 194000 (2019) 44000 (2021) 82000 46000 47300 58400 99600 137000
2022-09-25 08:45 4.82 39900 194000 (2019) 44000 (2021) 82000 46000 47300 58400 99600 137000
2022-09-25 07:45 4.79 39800 194000 (2019) 44000 (2021) 82000 46000 47300 58400 99600 137000
2022-09-25 06:45 4.82 39900 194000 (2019) 44000 (2021) 82000 46000 47300 58400 99600 137000
2022-09-25 05:45 4.82 39900 194000 (2019) 44000 (2021) 82000 46000 47300 58400 99600 137000
2022-09-25 04:45 4.84 40000 194000 (2019) 44000 (2021) 82000 46000 47300 58400 99600 137000
2022-09-25 03:45 4.81 39900 194000 (2019) 44000 (2021) 82000 46000 47300 58400 99600 137000
2022-09-25 02:45 4.81 39900 194000 (2019) 44000 (2021) 82000 46000 47300 58400 99600 137000
2022-09-25 01:45 4.81 39900 194000 (2019) 44000 (2021) 82000 46000 47300 58400 99600 137000
2022-09-25 00:45 4.82 39900 194000 (2019) 44000 (2021) 82000 46000 47300 58400 99600 137000
2022-09-24 23:45 4.81 39900 184000 (2019) 44300 (2021) 82300 46300 47700 62300 101000 134000
2022-09-24 22:45 4.80 39800 184000 (2019) 44300 (2021) 82300 46300 47700 62300 101000 134000
2022-09-24 21:45 4.79 39800 184000 (2019) 44300 (2021) 82300 46300 47700 62300 101000 134000
2022-09-24 20:45 4.81 39900 184000 (2019) 44300 (2021) 82300 46300 47700 62300 101000 134000
2022-09-24 19:45 4.78 39800 184000 (2019) 44300 (2021) 82300 46300 47700 62300 101000 134000
2022-09-24 18:45 4.77 39700 184000 (2019) 44300 (2021) 82300 46300 47700 62300 101000 134000
2022-09-24 17:45 4.78 39800 184000 (2019) 44300 (2021) 82300 46300 47700 62300 101000 134000
2022-09-24 16:45 4.75 39600 184000 (2019) 44300 (2021) 82300 46300 47700 62300 101000 134000
2022-09-24 15:45 4.78 39800 184000 (2019) 44300 (2021) 82300 46300 47700 62300 101000 134000
2022-09-24 14:45 4.78 39800 184000 (2019) 44300 (2021) 82300 46300 47700 62300 101000 134000
2022-09-24 13:45 4.73 39500 184000 (2019) 44300 (2021) 82300 46300 47700 62300 101000 134000
2022-09-24 12:45 4.73 39500 184000 (2019) 44300 (2021) 82300 46300 47700 62300 101000 134000
2022-09-24 11:45 4.76 39700 184000 (2019) 44300 (2021) 82300 46300 47700 62300 101000 134000
2022-09-24 10:45 4.75 39600 184000 (2019) 44300 (2021) 82300 46300 47700 62300 101000 134000
2022-09-24 09:45 4.75 39600 184000 (2019) 44300 (2021) 82300 46300 47700 62300 101000 134000
2022-09-24 08:45 4.76 39700 184000 (2019) 44300 (2021) 82300 46300 47700 62300 101000 134000
2022-09-24 07:45 4.74 39600 184000 (2019) 44300 (2021) 82300 46300 47700 62300 101000 134000
2022-09-24 06:45 4.73 39500 184000 (2019) 44300 (2021) 82300 46300 47700 62300 101000 134000
2022-09-24 05:45 4.75 39600 184000 (2019) 44300 (2021) 82300 46300 47700 62300 101000 134000
2022-09-24 04:45 4.75 39600 184000 (2019) 44300 (2021) 82300 46300 47700 62300 101000 134000
2022-09-24 03:45 4.74 39600 184000 (2019) 44300 (2021) 82300 46300 47700 62300 101000 134000
2022-09-24 02:45 4.74 39600 184000 (2019) 44300 (2021) 82300 46300 47700 62300 101000 134000
2022-09-24 01:45 4.73 39500 184000 (2019) 44300 (2021) 82300 46300 47700 62300 101000 134000
2022-09-24 00:45 4.74 39600 184000 (2019) 44300 (2021) 82300 46300 47700 62300 101000 134000
2022-09-23 23:45 4.74 39600 153000 (2019) 44800 (2021) 78700 47000 48400 62000 101000 122000
2022-09-23 22:45 4.74 39600 153000 (2019) 44800 (2021) 78700 47000 48400 62000 101000 122000
2022-09-23 21:45 4.72 39500 153000 (2019) 44800 (2021) 78700 47000 48400 62000 101000 122000
2022-09-23 20:45 4.72 39500 153000 (2019) 44800 (2021) 78700 47000 48400 62000 101000 122000
2022-09-23 19:45 4.69 39400 153000 (2019) 44800 (2021) 78700 47000 48400 62000 101000 122000
2022-09-23 18:45 4.70 39400 153000 (2019) 44800 (2021) 78700 47000 48400 62000 101000 122000
2022-09-23 17:45 4.65 39200 153000 (2019) 44800 (2021) 78700 47000 48400 62000 101000 122000
2022-09-23 16:45 4.63 39100 153000 (2019) 44800 (2021) 78700 47000 48400 62000 101000 122000
2022-09-23 15:45 4.67 39300 153000 (2019) 44800 (2021) 78700 47000 48400 62000 101000 122000
2022-09-23 14:45 4.67 39300 153000 (2019) 44800 (2021) 78700 47000 48400 62000 101000 122000
2022-09-23 13:45 4.70 39400 153000 (2019) 44800 (2021) 78700 47000 48400 62000 101000 122000
2022-09-23 12:45 4.61 39000 153000 (2019) 44800 (2021) 78700 47000 48400 62000 101000 122000
2022-09-23 11:45 4.63 39100 153000 (2019) 44800 (2021) 78700 47000 48400 62000 101000 122000
2022-09-23 10:45 4.66 39200 153000 (2019) 44800 (2021) 78700 47000 48400 62000 101000 122000
2022-09-23 09:45 4.61 39000 153000 (2019) 44800 (2021) 78700 47000 48400 62000 101000 122000
2022-09-23 08:45 4.60 39000 153000 (2019) 44800 (2021) 78700 47000 48400 62000 101000 122000
2022-09-23 07:45 4.63 39100 153000 (2019) 44800 (2021) 78700 47000 48400 62000 101000 122000
2022-09-23 06:45 4.62 39100 153000 (2019) 44800 (2021) 78700 47000 48400 62000 101000 122000
2022-09-23 05:45 4.68 39300 153000 (2019) 44800 (2021) 78700 47000 48400 62000 101000 122000
2022-09-23 04:45 4.68 39300 153000 (2019) 44800 (2021) 78700 47000 48400 62000 101000 122000
2022-09-23 03:45 4.68 39300 153000 (2019) 44800 (2021) 78700 47000 48400 62000 101000 122000
2022-09-23 02:45 4.68 39300 153000 (2019) 44800 (2021) 78700 47000 48400 62000 101000 122000
2022-09-23 01:45 4.67 39300 153000 (2019) 44800 (2021) 78700 47000 48400 62000 101000 122000
2022-09-23 00:45 4.67 39300 153000 (2019) 44800 (2021) 78700 47000 48400 62000 101000 122000
2022-09-22 23:45 4.67 39300 142000 (2019) 45100 (2021) 77900 47100 48400 60400 101000 117000
2022-09-22 22:45 4.67 39300 142000 (2019) 45100 (2021) 77900 47100 48400 60400 101000 117000
2022-09-22 21:45 4.68 39300 142000 (2019) 45100 (2021) 77900 47100 48400 60400 101000 117000
2022-09-22 20:45 4.68 39300 142000 (2019) 45100 (2021) 77900 47100 48400 60400 101000 117000
2022-09-22 19:45 4.66 39200 142000 (2019) 45100 (2021) 77900 47100 48400 60400 101000 117000
2022-09-22 18:45 4.66 39200 142000 (2019) 45100 (2021) 77900 47100 48400 60400 101000 117000
2022-09-22 17:45 4.66 39200 142000 (2019) 45100 (2021) 77900 47100 48400 60400 101000 117000
2022-09-22 16:45 4.64 39200 142000 (2019) 45100 (2021) 77900 47100 48400 60400 101000 117000
2022-09-22 15:45 4.62 39100 142000 (2019) 45100 (2021) 77900 47100 48400 60400 101000 117000
2022-09-22 14:45 4.57 38900 142000 (2019) 45100 (2021) 77900 47100 48400 60400 101000 117000
2022-09-22 13:45 4.63 39100 142000 (2019) 45100 (2021) 77900 47100 48400 60400 101000 117000
2022-09-22 12:45 4.62 39100 142000 (2019) 45100 (2021) 77900 47100 48400 60400 101000 117000
2022-09-22 11:45 4.65 39200 142000 (2019) 45100 (2021) 77900 47100 48400 60400 101000 117000
2022-09-22 10:45 4.64 39200 142000 (2019) 45100 (2021) 77900 47100 48400 60400 101000 117000
2022-09-22 09:45 4.65 39200 142000 (2019) 45100 (2021) 77900 47100 48400 60400 101000 117000
2022-09-22 08:45 4.65 39200 142000 (2019) 45100 (2021) 77900 47100 48400 60400 101000 117000
2022-09-22 07:45 4.64 39200 142000 (2019) 45100 (2021) 77900 47100 48400 60400 101000 117000
2022-09-22 06:45 4.63 39100 142000 (2019) 45100 (2021) 77900 47100 48400 60400 101000 117000
2022-09-22 05:45 4.63 39100 142000 (2019) 45100 (2021) 77900 47100 48400 60400 101000 117000
2022-09-22 04:45 4.62 39100 142000 (2019) 45100 (2021) 77900 47100 48400 60400 101000 117000
2022-09-22 03:45 4.64 39200 142000 (2019) 45100 (2021) 77900 47100 48400 60400 101000 117000
2022-09-22 02:45 4.63 39100 142000 (2019) 45100 (2021) 77900 47100 48400 60400 101000 117000
2022-09-22 01:45 4.64 39200 142000 (2019) 45100 (2021) 77900 47100 48400 60400 101000 117000
2022-09-22 00:45 4.64 39200 142000 (2019) 45100 (2021) 77900 47100 48400 60400 101000 117000
2022-09-21 23:45 4.63 39100 141000 (2019) 45500 (2021) 79600 47400 48600 58700 110000 122000
2022-09-21 22:45 4.62 39100 141000 (2019) 45500 (2021) 79600 47400 48600 58700 110000 122000
2022-09-21 21:45 4.60 39000 141000 (2019) 45500 (2021) 79600 47400 48600 58700 110000 122000
2022-09-21 20:45 4.62 39100 141000 (2019) 45500 (2021) 79600 47400 48600 58700 110000 122000
2022-09-21 19:45 4.62 39100 141000 (2019) 45500 (2021) 79600 47400 48600 58700 110000 122000
2022-09-21 18:45 4.60 39000 141000 (2019) 45500 (2021) 79600 47400 48600 58700 110000 122000
2022-09-21 17:45 4.59 38900 141000 (2019) 45500 (2021) 79600 47400 48600 58700 110000 122000
2022-09-21 16:45 4.54 38700 141000 (2019) 45500 (2021) 79600 47400 48600 58700 110000 122000
2022-09-21 15:45 4.56 38800 141000 (2019) 45500 (2021) 79600 47400 48600 58700 110000 122000
2022-09-21 14:45 4.54 38700 141000 (2019) 45500 (2021) 79600 47400 48600 58700 110000 122000
2022-09-21 13:45 4.49 38500 141000 (2019) 45500 (2021) 79600 47400 48600 58700 110000 122000
2022-09-21 12:45 4.52 38600 141000 (2019) 45500 (2021) 79600 47400 48600 58700 110000 122000
2022-09-21 11:45 4.50 38600 141000 (2019) 45500 (2021) 79600 47400 48600 58700 110000 122000
2022-09-21 10:45 4.50 38600 141000 (2019) 45500 (2021) 79600 47400 48600 58700 110000 122000
2022-09-21 09:45 4.54 38700 141000 (2019) 45500 (2021) 79600 47400 48600 58700 110000 122000
2022-09-21 08:45 4.55 38800 141000 (2019) 45500 (2021) 79600 47400 48600 58700 110000 122000
2022-09-21 07:45 4.55 38800 141000 (2019) 45500 (2021) 79600 47400 48600 58700 110000 122000
2022-09-21 06:45 4.54 38700 141000 (2019) 45500 (2021) 79600 47400 48600 58700 110000 122000
2022-09-21 05:45 4.56 38800 141000 (2019) 45500 (2021) 79600 47400 48600 58700 110000 122000
2022-09-21 04:45 4.54 38700 141000 (2019) 45500 (2021) 79600 47400 48600 58700 110000 122000
2022-09-21 03:45 4.55 38800 141000 (2019) 45500 (2021) 79600 47400 48600 58700 110000 122000
2022-09-21 02:45 4.56 38800 141000 (2019) 45500 (2021) 79600 47400 48600 58700 110000 122000
2022-09-21 01:45 4.55 38800 141000 (2019) 45500 (2021) 79600 47400 48600 58700 110000 122000
2022-09-21 00:45 4.54 38700 141000 (2019) 45500 (2021) 79600 47400 48600 58700 110000 122000
2022-09-20 23:45 4.56 38800 140000 (2019) 44600 (2021) 79500 47200 49000 58200 110000 122000
2022-09-20 22:45 4.54 38700 140000 (2019) 44600 (2021) 79500 47200 49000 58200 110000 122000
2022-09-20 21:45 4.56 38800 140000 (2019) 44600 (2021) 79500 47200 49000 58200 110000 122000
2022-09-20 20:45 4.54 38700 140000 (2019) 44600 (2021) 79500 47200 49000 58200 110000 122000
2022-09-20 19:45 4.55 38800 140000 (2019) 44600 (2021) 79500 47200 49000 58200 110000 122000
2022-09-20 18:45 4.52 38600 140000 (2019) 44600 (2021) 79500 47200 49000 58200 110000 122000
2022-09-20 17:45 4.53 38700 140000 (2019) 44600 (2021) 79500 47200 49000 58200 110000 122000
2022-09-20 16:45 4.53 38700 140000 (2019) 44600 (2021) 79500 47200 49000 58200 110000 122000
2022-09-20 15:45 4.52 38600 140000 (2019) 44600 (2021) 79500 47200 49000 58200 110000 122000
2022-09-20 14:45 4.50 38600 140000 (2019) 44600 (2021) 79500 47200 49000 58200 110000 122000
2022-09-20 13:45 4.44 38300 140000 (2019) 44600 (2021) 79500 47200 49000 58200 110000 122000
2022-09-20 12:45 4.53 38700 140000 (2019) 44600 (2021) 79500 47200 49000 58200 110000 122000
2022-09-20 11:45 4.44 38300 140000 (2019) 44600 (2021) 79500 47200 49000 58200 110000 122000
2022-09-20 10:45 4.49 38500 140000 (2019) 44600 (2021) 79500 47200 49000 58200 110000 122000
2022-09-20 09:45 4.55 38800 140000 (2019) 44600 (2021) 79500 47200 49000 58200 110000 122000
2022-09-20 08:45 4.53 38700 140000 (2019) 44600 (2021) 79500 47200 49000 58200 110000 122000
2022-09-20 07:45 4.55 38800 140000 (2019) 44600 (2021) 79500 47200 49000 58200 110000 122000
2022-09-20 06:45 4.55 38800 140000 (2019) 44600 (2021) 79500 47200 49000 58200 110000 122000
2022-09-20 05:45 4.57 38900 140000 (2019) 44600 (2021) 79500 47200 49000 58200 110000 122000
2022-09-20 04:45 4.58 38900 140000 (2019) 44600 (2021) 79500 47200 49000 58200 110000 122000
2022-09-20 03:45 4.56 38800 140000 (2019) 44600 (2021) 79500 47200 49000 58200 110000 122000
2022-09-20 02:45 4.57 38900 140000 (2019) 44600 (2021) 79500 47200 49000 58200 110000 122000
2022-09-20 01:45 4.57 38900 140000 (2019) 44600 (2021) 79500 47200 49000 58200 110000 122000
2022-09-20 00:45 4.58 38900 140000 (2019) 44600 (2021) 79500 47200 49000 58200 110000 122000
2022-09-19 23:45 4.57 38900 139000 (2019) 45200 (2021) 78600 47000 48200 59200 106000 119000
2022-09-19 22:45 4.59 38900 139000 (2019) 45200 (2021) 78600 47000 48200 59200 106000 119000
2022-09-19 21:45 4.59 38900 139000 (2019) 45200 (2021) 78600 47000 48200 59200 106000 119000
2022-09-19 20:45 4.60 39000 139000 (2019) 45200 (2021) 78600 47000 48200 59200 106000 119000
2022-09-19 19:45 4.61 39000 139000 (2019) 45200 (2021) 78600 47000 48200 59200 106000 119000
2022-09-19 18:45 4.62 39100 139000 (2019) 45200 (2021) 78600 47000 48200 59200 106000 119000
2022-09-19 17:45 4.61 39000 139000 (2019) 45200 (2021) 78600 47000 48200 59200 106000 119000
2022-09-19 16:45 4.60 39000 139000 (2019) 45200 (2021) 78600 47000 48200 59200 106000 119000
2022-09-19 15:45 4.59 38900 139000 (2019) 45200 (2021) 78600 47000 48200 59200 106000 119000
2022-09-19 14:45 4.62 39100 139000 (2019) 45200 (2021) 78600 47000 48200 59200 106000 119000
2022-09-19 13:45 4.56 38800 139000 (2019) 45200 (2021) 78600 47000 48200 59200 106000 119000
2022-09-19 12:45 4.61 39000 139000 (2019) 45200 (2021) 78600 47000 48200 59200 106000 119000
2022-09-19 11:45 4.52 38600 139000 (2019) 45200 (2021) 78600 47000 48200 59200 106000 119000
2022-09-19 10:45 4.64 39200 139000 (2019) 45200 (2021) 78600 47000 48200 59200 106000 119000
2022-09-19 09:45 4.65 39200 139000 (2019) 45200 (2021) 78600 47000 48200 59200 106000 119000
2022-09-19 08:45 4.63 39100 139000 (2019) 45200 (2021) 78600 47000 48200 59200 106000 119000
2022-09-19 07:45 4.68 39300 139000 (2019) 45200 (2021) 78600 47000 48200 59200 106000 119000
2022-09-19 06:45 4.59 38900 139000 (2019) 45200 (2021) 78600 47000 48200 59200 106000 119000
2022-09-19 05:45 4.65 39200 139000 (2019) 45200 (2021) 78600 47000 48200 59200 106000 119000
2022-09-19 04:45 4.66 39200 139000 (2019) 45200 (2021) 78600 47000 48200 59200 106000 119000
2022-09-19 03:45 4.68 39300 139000 (2019) 45200 (2021) 78600 47000 48200 59200 106000 119000
2022-09-19 02:45 4.66 39200 139000 (2019) 45200 (2021) 78600 47000 48200 59200 106000 119000
2022-09-19 01:45 4.67 39300 139000 (2019) 45200 (2021) 78600 47000 48200 59200 106000 119000
2022-09-19 00:45 4.67 39300 139000 (2019) 45200 (2021) 78600 47000 48200 59200 106000 119000
2022-09-18 23:45 4.68 39300 137000 (2019) 45800 (2021) 81500 46900 47700 60400 121000 127000
2022-09-18 22:45 4.67 39300 137000 (2019) 45800 (2021) 81500 46900 47700 60400 121000 127000
2022-09-18 21:45 4.68 39300 137000 (2019) 45800 (2021) 81500 46900 47700 60400 121000 127000
2022-09-18 20:45 4.68 39300 137000 (2019) 45800 (2021) 81500 46900 47700 60400 121000 127000
2022-09-18 19:45 4.65 39200 137000 (2019) 45800 (2021) 81500 46900 47700 60400 121000 127000
2022-09-18 18:45 4.64 39200 137000 (2019) 45800 (2021) 81500 46900 47700 60400 121000 127000
2022-09-18 17:45 4.67 39300 137000 (2019) 45800 (2021) 81500 46900 47700 60400 121000 127000
2022-09-18 16:45 4.63 39100 137000 (2019) 45800 (2021) 81500 46900 47700 60400 121000 127000
2022-09-18 15:45 4.68 39300 137000 (2019) 45800 (2021) 81500 46900 47700 60400 121000 127000
2022-09-18 14:45 4.66 39200 137000 (2019) 45800 (2021) 81500 46900 47700 60400 121000 127000
2022-09-18 13:45 4.67 39300 137000 (2019) 45800 (2021) 81500 46900 47700 60400 121000 127000
2022-09-18 12:45 4.66 39200 137000 (2019) 45800 (2021) 81500 46900 47700 60400 121000 127000
2022-09-18 11:45 4.65 39200 137000 (2019) 45800 (2021) 81500 46900 47700 60400 121000 127000
2022-09-18 10:45 4.65 39200 137000 (2019) 45800 (2021) 81500 46900 47700 60400 121000 127000
2022-09-18 09:45 4.62 39100 137000 (2019) 45800 (2021) 81500 46900 47700 60400 121000 127000
2022-09-18 08:45 4.59 38900 137000 (2019) 45800 (2021) 81500 46900 47700 60400 121000 127000
2022-09-18 07:45 4.73 39500 137000 (2019) 45800 (2021) 81500 46900 47700 60400 121000 127000
2022-09-18 06:45 4.67 39300 137000 (2019) 45800 (2021) 81500 46900 47700 60400 121000 127000
2022-09-18 05:45 4.66 39200 137000 (2019) 45800 (2021) 81500 46900 47700 60400 121000 127000
2022-09-18 04:45 4.67 39300 137000 (2019) 45800 (2021) 81500 46900 47700 60400 121000 127000
2022-09-18 03:45 4.68 39300 137000 (2019) 45800 (2021) 81500 46900 47700 60400 121000 127000
2022-09-18 02:45 4.68 39300 137000 (2019) 45800 (2021) 81500 46900 47700 60400 121000 127000
2022-09-18 01:45 4.69 39400 137000 (2019) 45800 (2021) 81500 46900 47700 60400 121000 127000
2022-09-18 00:45 4.69 39400 137000 (2019) 45800 (2021) 81500 46900 47700 60400 121000 127000

A total of 190 rows are displayed for years 2015 through 2021.